aviador You're here:

KCUB Decoded Metar

COLUMBIA-OWENS in SC, USA
Report Time2017-11-21 05:53:00
UTC Time2017-11-21 06:23:40
Flight Rules vfr VFR
WindCalm
Visibility9999 m
Phenomena:N/A
Clouds:N/A
Expected CloudBase > 400 ft AGL from Temp-Dew spread
CeilingNone
Temp03°C (ISA -12)
Dew Point02°C (93% RH)
AAT1.3°C
QNH1024 hPa
Density Alt-1,506 ft
Elevation184 ft
Report Wrong Elevation
Raw Report
KCUB 210553Z AUTO 00000KT 10SM CLR 03/02 A3025 RMK AO2 SLP242
T00330017 10078 20033 58001=

Extra information for KCUB:More info

Metar Taf Metar & Taf Last 4 Metars F.Rules Stats Wind Profile Meteogram Temp Stats Airport Information Weather charts Add Link Nearby VenuesMetar ALERT Operation Metar Decoded Social comments

AIRNAV info for KCUB